Time;durP1;ratioP1;P1;durP2;ratioP2;P2;SDS_P1;SDS_P2;PMS_P1;PMS_P2;Temp;Humidity;BMP_temperature;BMP_pressure;BME280_temperature;BME280_humidity;BME280_pressure;Samples;Min_cycle;Max_cycle;Signal;HPM_P1;HPM_P2
2022/04/11 00:01:49;;;;;;;6.67;3.17;;;;;;;1.53;70.71;101074.60;1713160;83;20960;-75
2022/04/11 00:04:15;;;;;;;7.50;3.33;;;;;;;1.53;70.71;101074.60;1726657;82;22061;-75
2022/04/11 00:06:41;;;;;;;7.97;3.55;;;;;;;1.50;70.86;101071.55;1727341;83;20988;-75
2022/04/11 00:09:07;;;;;;;9.20;3.90;;;;;;;1.50;70.89;101069.42;1706793;82;21053;-75
2022/04/11 00:11:33;;;;;;;5.08;3.60;;;;;;;1.49;70.94;101077.47;1727295;83;21512;-75
2022/04/11 00:14:01;;;;;;;7.92;4.08;;;;;;;1.47;70.91;101072.74;1727393;83;21517;-75
2022/04/11 00:16:28;;;;;;;9.40;3.67;;;;;;;1.45;70.98;101070.97;1716619;81;21528;-75
2022/04/11 00:18:54;;;;;;;;;;;;;;;1.45;71.00;101070.56;1700491;83;21520;-74
2022/04/11 00:21:20;;;;;;;5.67;3.60;;;;;;;1.45;71.35;101067.15;1669613;84;20716;-74
2022/04/11 00:23:46;;;;;;;5.03;2.80;;;;;;;1.45;71.06;101066.73;1714496;81;20988;-74
2022/04/11 00:26:12;;;;;;;4.95;2.95;;;;;;;1.45;71.13;101060.78;1727154;83;21497;-74
2022/04/11 00:28:38;;;;;;;7.10;3.45;;;;;;;1.46;71.12;101065.92;1727406;83;21520;-74
2022/04/11 00:31:04;;;;;;;9.58;3.45;;;;;;;1.48;71.18;101059.59;1727449;83;21604;-74
2022/04/11 00:33:30;;;;;;;8.10;3.60;;;;;;;1.50;71.13;101059.23;1698329;83;20874;-74
2022/04/11 00:35:56;;;;;;;6.45;3.17;;;;;;;1.51;71.20;101064.77;1699254;81;21742;-74
2022/04/11 00:38:22;;;;;;;8.73;3.35;;;;;;;1.53;71.24;101068.23;1698410;83;21040;-74
2022/04/11 00:40:48;;;;;;;10.97;3.57;;;;;;;1.54;71.24;101063.58;1698456;83;21730;-74
2022/04/11 00:43:33;;;;;;;9.30;3.80;;;;;;;1.55;71.27;101061.49;1686526;82;21639;-74
2022/04/11 00:46:00;;;;;;;7.20;3.62;;;;;;;1.55;71.24;101067.45;1698914;84;21528;-74
2022/04/11 00:48:26;;;;;;;;;;;;;;;1.56;71.26;101067.04;1707990;83;20976;-74
2022/04/11 00:50:56;;;;;;;;;;;;;;;1.57;71.57;101068.73;1684700;81;20552;-74
2022/04/11 00:53:23;;;;;;;8.05;3.98;;;;;;;1.56;71.47;101071.70;1707275;83;20464;-75
2022/04/11 00:55:52;;;;;;;12.63;5.35;;;;;;;1.55;71.28;101066.17;1697765;84;21579;-75
2022/04/11 00:58:18;;;;;;;12.35;6.15;;;;;;;1.56;71.35;101073.41;1678469;84;21028;-75
2022/04/11 01:00:44;;;;;;;12.37;5.25;;;;;;;1.57;71.39;101076.38;1713097;81;21604;-75
2022/04/11 01:03:11;;;;;;;12.40;6.00;;;;;;;1.60;71.47;101076.47;1727395;82;21618;-75
2022/04/11 01:05:37;;;;;;;10.18;5.33;;;;;;;1.63;71.50;101077.41;1727203;83;21044;-75
2022/04/11 01:08:09;;;;;;;9.55;5.83;;;;;;;1.65;71.54;101073.22;1725747;81;21524;-75
2022/04/11 01:10:36;;;;;;;8.20;3.83;;;;;;;1.66;71.50;101068.58;1715503;83;21544;-75
2022/04/11 01:13:02;;;;;;;;;;;;;;;1.65;71.49;101071.95;1712607;83;21453;-75
2022/04/11 01:15:29;;;;;;;5.22;2.98;;;;;;;1.66;71.85;101077.91;1715391;83;20548;-75
2022/04/11 01:17:57;;;;;;;7.42;3.10;;;;;;;1.67;71.63;101069.44;1706119;83;21331;-75
2022/04/11 01:20:23;;;;;;;6.00;2.40;;;;;;;1.68;71.61;101071.17;1705979;83;21489;-75
2022/04/11 01:22:49;;;;;;;6.13;2.37;;;;;;;1.69;71.67;101074.58;1723319;81;21294;-75
2022/04/11 01:25:17;;;;;;;3.40;2.12;;;;;;;1.69;71.65;101076.72;1729103;81;21358;-75
2022/04/11 01:27:43;;;;;;;6.70;2.87;;;;;;;1.70;71.66;101077.58;1702233;83;20902;-75
2022/04/11 01:30:13;;;;;;;8.30;3.22;;;;;;;1.69;71.71;101082.23;1700084;84;21394;-75
2022/04/11 01:32:40;;;;;;;4.12;2.58;;;;;;;1.69;71.71;101084.78;1700576;81;21442;-75
2022/04/11 01:35:20;;;;;;;;;;;;;;;1.69;71.73;101083.09;1702523;83;20945;-75
2022/04/11 01:37:46;;;;;;;5.47;2.12;;;;;;;1.70;72.05;101093.74;1700012;84;20398;-75
2022/04/11 01:40:12;;;;;;;7.30;2.40;;;;;;;1.71;71.84;101094.61;1700169;84;20874;-75
2022/04/11 01:42:38;;;;;;;4.72;2.50;;;;;;;1.72;71.85;101097.20;1717835;81;21128;-75
2022/04/11 01:45:09;;;;;;;5.57;2.40;;;;;;;1.75;71.88;101090.91;1718502;83;20893;-75
2022/04/11 01:47:38;;;;;;;5.92;2.62;;;;;;;1.77;71.91;101104.56;1723059;83;20941;-75
2022/04/11 01:50:06;;;;;;;8.43;2.40;;;;;;;1.80;71.97;101092.31;1710051;81;20937;-75
2022/04/11 01:52:32;;;;;;;4.78;2.35;;;;;;;1.83;71.96;101093.67;1699996;83;20901;-76
2022/04/11 01:54:58;;;;;;;8.18;2.55;;;;;;;1.85;71.91;101099.26;1700003;84;22165;-75
2022/04/11 01:57:24;;;;;;;5.22;2.40;;;;;;;1.85;72.05;101091.61;1700153;81;21401;-75
2022/04/11 01:59:50;;;;;;;7.03;2.25;;;;;;;1.88;72.02;101105.72;1700087;83;20933;-75
2022/04/11 02:02:17;;;;;;;9.10;2.22;;;;;;;1.89;72.07;101101.07;1699448;83;21032;-75
2022/04/11 02:04:43;;;;;;;6.25;2.12;;;;;;;1.92;72.06;101102.42;1698261;84;21059;-75
2022/04/11 02:07:09;;;;;;;6.62;2.05;;;;;;;1.96;72.14;101104.65;1712577;81;20897;-75
2022/04/11 02:09:35;;;;;;;5.20;2.08;;;;;;;1.99;72.13;101111.97;1700411;83;20921;-75
2022/04/11 02:12:01;;;;;;;3.87;2.20;;;;;;;2.03;72.09;101113.33;1700243;83;20905;-75
2022/04/11 02:14:27;;;;;;;4.90;1.50;;;;;;;2.06;72.21;101115.96;1706541;81;20912;-75
2022/04/11 02:16:53;;;;;;;7.97;2.25;;;;;;;2.08;72.20;101124.07;1717014;83;20889;-75
2022/04/11 02:19:19;;;;;;;8.00;2.22;;;;;;;2.10;72.18;101120.28;1716796;81;20889;-75
2022/04/11 02:21:46;;;;;;;;;;;;;;;2.12;72.21;101131.39;1716440;82;21334;-75
2022/04/11 02:24:11;;;;;;;5.00;2.40;;;;;;;2.15;72.55;101131.06;1711809;83;20139;-75
2022/04/11 02:26:38;;;;;;;6.60;2.50;;;;;;;2.18;72.28;101141.77;1718593;81;20960;-75
2022/04/11 02:29:04;;;;;;;6.53;2.12;;;;;;;2.21;72.24;101138.02;1695215;83;21410;-75
2022/04/11 02:31:30;;;;;;;5.17;2.67;;;;;;;2.23;72.27;101136.37;1692282;83;20906;-75
2022/04/11 02:33:56;;;;;;;7.57;2.17;;;;;;;2.24;72.28;101129.17;1587688;81;9999955;-75
2022/04/11 02:36:22;;;;;;;5.47;2.12;;;;;;;2.24;72.27;101128.76;1724308;83;20992;-74
2022/04/11 02:38:48;;;;;;;3.83;1.90;;;;;;;2.24;72.27;101136.82;1724236;82;21505;-74
2022/04/11 02:41:14;;;;;;;6.03;2.42;;;;;;;2.23;72.24;101135.09;1714554;81;20846;-74
2022/04/11 02:43:40;;;;;;;4.50;2.40;;;;;;;2.20;72.24;101134.60;1722630;83;20968;-74
2022/04/11 02:46:05;;;;;;;6.73;2.60;;;;;;;2.18;72.32;101130.28;1710015;83;20993;-74
2022/04/11 02:48:38;;;;;;;4.50;1.92;;;;;;;2.16;72.30;101130.66;1728727;81;20870;-74
2022/04/11 02:51:04;;;;;;;;;;;;;;;2.15;72.30;101132.34;1734309;82;20909;-74
2022/04/11 02:53:30;;;;;;;6.42;2.22;;;;;;;2.14;72.51;101124.65;1726290;81;20164;-75
2022/04/11 02:55:56;;;;;;;11.60;2.57;;;;;;;2.12;72.38;101124.61;1702722;82;20851;-75
2022/04/11 02:58:22;;;;;;;6.05;2.08;;;;;;;2.11;72.48;101124.56;1702451;84;20917;-75
2022/04/11 03:00:48;;;;;;;8.80;3.37;;;;;;;2.13;72.35;101128.02;1711597;81;20866;-75
2022/04/11 03:03:14;;;;;;;4.12;2.40;;;;;;;2.13;72.35;101128.02;1705803;82;21359;-75
2022/04/11 03:05:40;;;;;;;6.47;1.97;;;;;;;2.15;72.45;101126.38;1696214;81;20917;-75
2022/04/11 03:08:07;;;;;;;3.60;2.33;;;;;;;2.16;72.45;101128.10;1698606;83;20937;-75
2022/04/11 03:10:33;;;;;;;4.95;2.72;;;;;;;2.18;72.55;101120.08;1695271;84;20953;-75
2022/04/11 03:12:59;;;;;;;6.37;2.05;;;;;;;2.21;72.57;101126.53;1695221;83;21810;-75
2022/04/11 03:15:27;;;;;;;7.40;1.90;;;;;;;2.20;72.58;101123.12;1695608;81;20917;-75
2022/04/11 03:17:53;;;;;;;6.03;2.20;;;;;;;2.24;72.61;101121.10;1695150;83;20878;-75
2022/04/11 03:20:19;;;;;;;7.45;1.75;;;;;;;2.26;72.67;101120.73;1695509;83;21414;-75
2022/04/11 03:22:45;;;;;;;4.47;1.82;;;;;;;2.26;72.57;101114.35;1693663;84;21044;-75
2022/04/11 03:25:11;;;;;;;2.72;1.82;;;;;;;2.28;72.65;101124.19;1694272;81;20929;-75
2022/04/11 03:27:37;;;;;;;6.12;1.62;;;;;;;2.29;72.71;101120.80;1693275;83;21052;-75
2022/04/11 03:30:05;;;;;;;4.70;1.92;;;;;;;2.32;72.70;101123.44;1693434;84;21053;-75
2022/04/11 03:32:32;;;;;;;4.05;1.52;;;;;;;2.33;72.76;101123.03;1707500;81;21095;-75
2022/04/11 03:34:58;;;;;;;5.03;1.43;;;;;;;2.36;72.72;101131.17;1696462;83;20964;-75
2022/04/11 03:37:24;;;;;;;4.97;1.43;;;;;;;2.38;72.77;101125.28;1709663;83;21151;-75
2022/04/11 03:39:50;;;;;;;3.62;1.87;;;;;;;2.41;72.80;101134.30;1699160;81;21290;-75
2022/04/11 03:42:17;;;;;;;8.48;2.92;;;;;;;2.44;72.82;101135.64;1693499;83;21033;-75
2022/04/11 03:44:43;;;;;;;5.58;1.95;;;;;;;2.46;72.78;101139.52;1693826;84;21012;-75
2022/04/11 03:47:08;;;;;;;6.58;2.37;;;;;;;2.49;72.84;101137.05;1701725;81;21718;-75
2022/04/11 03:49:34;;;;;;;5.90;1.83;;;;;;;2.51;72.88;101138.81;1685735;84;20870;-75
2022/04/11 03:52:00;;;;;;;4.42;1.60;;;;;;;2.54;72.85;101136.74;1708779;82;20897;-75
2022/04/11 03:54:26;;;;;;;4.83;1.70;;;;;;;2.55;72.89;101137.20;1707281;81;21729;-75
2022/04/11 03:56:52;;;;;;;2.90;1.90;;;;;;;2.58;72.89;101134.30;1717062;81;20981;-75
2022/04/11 03:59:18;;;;;;;4.62;1.87;;;;;;;2.60;72.89;101134.34;1703989;83;21057;-75
2022/04/11 04:01:44;;;;;;;4.83;1.70;;;;;;;2.61;72.90;101132.20;1712834;81;21793;-75
2022/04/11 04:04:11;;;;;;;6.35;1.65;;;;;;;2.62;72.87;101139.04;1723352;81;21084;-75
2022/04/11 04:06:37;;;;;;;2.90;1.30;;;;;;;2.62;72.89;101128.83;1716842;81;20878;-75
2022/04/11 04:09:03;;;;;;;7.45;1.65;;;;;;;2.64;72.91;101130.59;1721319;81;21024;-75
2022/04/11 04:11:29;;;;;;;6.47;1.82;;;;;;;2.64;72.90;101127.17;1722426;82;21104;-76
2022/04/11 04:13:55;;;;;;;4.73;1.53;;;;;;;2.65;72.91;101126.34;1694649;82;21020;-77
2022/04/11 04:16:21;;;;;;;7.83;1.95;;;;;;;2.63;72.93;101125.03;1709837;82;21270;-79
2022/04/11 04:18:47;;;;;;;8.03;2.63;;;;;;;2.66;72.95;101143.39;1704768;81;20977;-78
2022/04/11 04:21:13;;;;;;;5.37;2.00;;;;;;;2.68;73.03;101145.58;1695949;83;20932;-79
2022/04/11 04:23:39;;;;;;;5.83;2.08;;;;;;;2.69;72.98;101145.16;1719719;82;21100;-79
2022/04/11 04:26:05;;;;;;;4.47;2.00;;;;;;;2.68;73.05;101143.44;1716585;81;20969;-79
2022/04/11 04:28:31;;;;;;;3.90;1.80;;;;;;;2.70;73.09;101143.92;1723556;81;21045;-79
2022/04/11 04:30:57;;;;;;;3.95;1.87;;;;;;;2.71;73.06;101145.65;1708570;81;21087;-80
2022/04/11 04:33:23;;;;;;;5.43;2.10;;;;;;;2.75;73.09;101152.97;1737851;82;20931;-79
2022/04/11 04:35:49;;;;;;;4.35;2.25;;;;;;;2.78;73.14;101147.94;1708617;81;21064;-79
2022/04/11 04:38:15;;;;;;;2.90;1.95;;;;;;;2.81;73.13;101153.13;1722640;81;21064;-79
2022/04/11 04:40:42;;;;;;;7.25;2.12;;;;;;;2.82;73.12;101151.88;1703658;83;21075;-79
2022/04/11 04:43:08;;;;;;;5.60;2.83;;;;;;;2.85;73.13;101153.65;1693484;84;21060;-79
2022/04/11 04:45:36;;;;;;;8.18;3.12;;;;;;;2.86;73.13;101157.92;1698856;81;23373;-78
2022/04/11 04:48:02;;;;;;;7.55;3.08;;;;;;;2.87;73.16;101157.10;1730562;82;20933;-78
2022/04/11 04:50:28;;;;;;;6.35;2.75;;;;;;;2.90;73.19;101162.28;1720486;81;21311;-77
2022/04/11 04:52:54;;;;;;;5.90;2.70;;;;;;;2.92;73.19;101164.46;1708623;81;20923;-77
2022/04/11 04:55:21;;;;;;;6.28;2.50;;;;;;;2.94;73.21;101166.22;1717550;82;20938;-77
2022/04/11 04:57:47;;;;;;;5.42;2.15;;;;;;;2.96;73.18;101174.79;1723800;81;20932;-78
2022/04/11 05:00:15;;;;;;;3.80;2.10;;;;;;;2.97;73.24;101171.41;1702177;83;21431;-78
2022/04/11 05:02:51;;;;;;;8.23;2.62;;;;;;;3.02;73.22;101176.63;1707409;81;20918;-78
2022/04/11 05:05:17;;;;;;;5.15;2.17;;;;;;;3.06;73.30;101177.15;1713421;82;21220;-78
2022/04/11 05:07:43;;;;;;;5.03;2.33;;;;;;;3.12;73.31;101173.88;1721309;81;20961;-77
2022/04/11 05:10:10;;;;;;;4.45;1.90;;;;;;;3.13;73.30;101177.70;1711340;82;20878;-78
2022/04/11 05:12:47;;;;;;;7.75;3.15;;;;;;;3.18;73.41;101177.81;1698354;81;21549;-78
2022/04/11 05:15:14;;;;;;;8.45;4.78;;;;;;;3.25;73.42;101179.69;1696946;82;20917;-78
2022/04/11 05:17:41;;;;;;;11.12;5.87;;;;;;;3.31;73.38;101177.27;1703761;83;20898;-79
2022/04/11 05:20:10;;;;;;;14.38;6.28;;;;;;;3.36;73.37;101179.51;1711505;83;20945;-79
2022/04/11 05:22:37;;;;;;;11.68;5.00;;;;;;;3.40;73.44;101178.75;1719269;81;20985;-78
2022/04/11 05:25:04;;;;;;;8.45;4.05;;;;;;;3.46;73.45;101176.74;1706095;83;21549;-78
2022/04/11 05:27:30;;;;;;;8.90;4.45;;;;;;;3.48;73.46;101179.78;1707145;83;20863;-78
2022/04/11 05:29:57;;;;;;;11.55;3.45;;;;;;;3.51;73.42;101177.70;1711179;81;20944;-78
2022/04/11 05:32:23;;;;;;;8.03;3.05;;;;;;;3.54;73.40;101184.16;1706829;82;21035;-78
2022/04/11 05:34:49;;;;;;;4.77;2.37;;;;;;;3.56;73.48;101184.65;1709580;81;20893;-78
2022/04/11 05:37:15;;;;;;;5.87;2.20;;;;;;;3.61;73.50;101182.19;1711958;82;20935;-78
2022/04/11 05:39:41;;;;;;;3.72;2.42;;;;;;;3.70;73.60;101188.75;1709981;83;21625;-78
2022/04/11 05:42:08;;;;;;;6.97;3.37;;;;;;;3.75;73.59;101187.15;1710957;81;20867;-78
2022/04/11 05:44:38;;;;;;;5.28;2.58;;;;;;;3.79;73.54;101194.05;1712702;82;21354;-78
2022/04/11 05:47:04;;;;;;;7.05;2.60;;;;;;;3.80;73.44;101191.95;1717159;81;20909;-78
2022/04/11 05:49:30;;;;;;;4.25;1.95;;;;;;;3.84;73.54;101200.13;1719900;81;20989;-78
2022/04/11 05:51:56;;;;;;;5.60;1.70;;;;;;;3.87;73.47;101196.77;1725117;81;21101;-78
2022/04/11 05:54:22;;;;;;;4.63;2.23;;;;;;;3.90;73.49;101191.30;1730939;81;20885;-79
2022/04/11 05:56:48;;;;;;;4.83;2.20;;;;;;;3.95;73.54;101194.82;1700896;81;21044;-79
2022/04/11 05:59:15;;;;;;;6.80;2.10;;;;;;;4.04;73.57;101197.98;1725308;82;21692;-79
2022/04/11 06:01:42;;;;;;;3.20;2.12;;;;;;;4.12;73.62;101200.69;1723540;81;21028;-79
2022/04/11 06:04:08;;;;;;;3.35;1.90;;;;;;;4.16;73.59;101206.32;1716465;81;21077;-79
2022/04/11 06:06:35;;;;;;;6.95;1.52;;;;;;;4.19;73.62;101209.77;1703972;83;21123;-79
2022/04/11 06:09:04;;;;;;;9.68;1.90;;;;;;;4.22;73.64;101208.55;1714164;82;21042;-78
2022/04/11 06:11:31;;;;;;;5.50;1.80;;;;;;;4.29;73.62;101206.97;1708032;81;20905;-78
2022/04/11 06:13:57;;;;;;;6.72;1.90;;;;;;;4.36;73.64;101215.21;1719085;82;130060;-78
2022/04/11 06:16:23;;;;;;;5.33;1.80;;;;;;;4.46;73.72;101208.56;1723265;81;21020;-78
2022/04/11 06:18:48;;;;;;;4.03;1.67;;;;;;;4.58;73.71;101205.81;1707918;83;20897;-78
2022/04/11 06:21:14;;;;;;;5.63;1.80;;;;;;;4.71;73.72;101211.98;1702657;82;20939;-78
2022/04/11 06:23:41;;;;;;;5.75;1.80;;;;;;;4.83;73.70;101215.17;1677373;83;21517;-78
2022/04/11 06:26:07;;;;;;;6.53;1.93;;;;;;;4.91;73.64;101207.20;1669555;83;20897;-78
2022/04/11 06:28:33;;;;;;;7.30;2.33;;;;;;;5.01;73.66;101210.36;1676434;83;20919;-78
2022/04/11 06:30:58;;;;;;;5.90;2.80;;;;;;;5.07;73.56;101210.46;1672741;83;20946;-78
2022/04/11 06:33:24;;;;;;;4.93;2.10;;;;;;;5.10;73.55;101210.92;1705712;83;20867;-78
2022/04/11 06:35:51;;;;;;;6.37;2.20;;;;;;;5.12;73.50;101215.24;1670885;83;21153;-78
2022/04/11 06:38:17;;;;;;;3.50;1.65;;;;;;;5.14;73.51;101218.69;1690878;84;21042;-78
2022/04/11 06:40:43;;;;;;;6.90;2.02;;;;;;;5.43;73.84;101224.23;1705803;83;21069;-79
2022/04/11 06:43:09;;;;;;;4.30;1.70;;;;;;;5.86;73.95;101208.98;1680816;83;20954;-78
2022/04/11 06:45:41;;;;;;;3.15;1.42;;;;;;;6.42;74.07;101206.22;1671035;83;21049;-78
2022/04/11 06:48:07;;;;;;;4.07;1.50;;;;;;;7.09;74.03;101201.66;1675718;84;21009;-78
2022/04/11 06:50:33;;;;;;;4.55;1.60;;;;;;;7.64;73.79;101204.58;1670388;83;21707;-78
2022/04/11 06:53:00;;;;;;;;;;;;;;;7.93;73.46;101204.69;1656619;83;21076;-78
2022/04/11 06:55:28;;;;;;;3.33;1.57;;;;;;;8.00;72.96;101207.72;1655054;84;20244;-78
2022/04/11 06:57:54;;;;;;;5.55;1.67;;;;;;;7.98;73.16;101209.43;1678701;83;20951;-77
2022/04/11 07:00:21;;;;;;;4.72;1.70;;;;;;;7.87;73.15;101205.95;1665623;83;20946;-77
2022/04/11 07:02:47;;;;;;;6.40;2.63;;;;;;;8.10;73.45;101215.92;1687669;83;20919;-77
2022/04/11 07:05:13;;;;;;;4.33;1.50;;;;;;;8.42;73.46;101209.59;1679060;84;20887;-77
2022/04/11 07:07:39;;;;;;;3.45;1.27;;;;;;;8.82;73.41;101217.39;1671261;83;20923;-77
2022/04/11 07:10:07;;;;;;;3.22;0.90;;;;;;;9.10;73.43;101214.36;1669657;84;20927;-77
2022/04/11 07:12:38;;;;;;;5.53;1.20;;;;;;;9.36;73.21;101216.92;1690312;83;21377;-77
2022/04/11 07:15:06;;;;;;;3.35;1.20;;;;;;;9.41;73.01;101213.88;1674363;83;20875;-77
2022/04/11 07:17:32;;;;;;;4.62;1.30;;;;;;;9.50;73.18;101211.28;1676469;84;20922;-79
2022/04/11 07:19:59;;;;;;;4.70;1.03;;;;;;;9.75;73.14;101219.83;1672951;83;21325;-78
2022/04/11 07:22:25;;;;;;;2.30;0.95;;;;;;;9.71;72.69;101215.10;1686970;82;20905;-78
2022/04/11 07:24:51;;;;;;;3.72;1.32;;;;;;;9.63;72.73;101216.41;1723110;81;20929;-78
2022/04/11 07:27:17;;;;;;;3.70;1.20;;;;;;;10.06;73.24;101212.80;1717650;81;20948;-78
2022/04/11 07:29:43;;;;;;;3.87;1.00;;;;;;;10.55;72.32;101217.29;1712038;81;20985;-78
2022/04/11 07:32:09;;;;;;;4.95;2.33;;;;;;;10.23;72.05;101218.79;1711187;81;20945;-78
2022/04/11 07:34:35;;;;;;;4.50;0.90;;;;;;;9.90;71.99;101222.33;1719949;81;21332;-78
2022/04/11 07:37:02;;;;;;;1.97;1.00;;;;;;;9.83;72.38;101216.36;1723850;81;21753;-78
2022/04/11 07:39:29;;;;;;;4.00;1.75;;;;;;;9.70;72.03;101208.65;1722881;81;20937;-78
2022/04/11 07:41:55;;;;;;;;;;;;;;;9.53;72.08;101213.42;1741683;81;20948;-78
2022/04/11 07:44:22;;;;;;;2.40;0.82;;;;;;;9.35;71.43;101216.50;1715473;81;20564;-78
2022/04/11 07:46:48;;;;;;;;;;;;;;;9.13;71.85;101211.78;1731757;81;208015;-78
2022/04/11 07:49:14;;;;;;;2.45;0.75;;;;;;;8.94;71.42;101210.48;1677943;81;20374;-78
2022/04/11 07:51:41;;;;;;;2.55;0.95;;;;;;;8.85;71.92;101210.91;1695626;83;48268;-78
2022/04/11 07:54:07;;;;;;;2.80;1.17;;;;;;;8.82;72.00;101213.52;1713607;82;22501;-78
2022/04/11 07:56:33;;;;;;;3.00;1.10;;;;;;;8.77;71.84;101207.50;1727902;82;20976;-78
2022/04/11 07:58:59;;;;;;;1.77;0.90;;;;;;;8.77;71.84;101207.50;1724061;81;21252;-78
2022/04/11 08:01:27;;;;;;;2.03;0.73;;;;;;;8.82;71.76;101222.55;1723806;82;20877;-78
2022/04/11 08:03:53;;;;;;;2.67;0.80;;;;;;;8.80;71.70;101233.29;1716964;82;21035;-78
2022/04/11 08:06:19;;;;;;;4.72;0.90;;;;;;;8.64;71.28;101231.11;1719631;81;21035;-77
2022/04/11 08:08:46;;;;;;;3.60;1.13;;;;;;;8.49;71.46;101233.66;1721357;82;21270;-78
2022/04/11 08:11:19;;;;;;;2.20;0.80;;;;;;;8.38;71.26;101237.92;1713633;82;20980;-78
2022/04/11 08:13:45;;;;;;;1.50;0.60;;;;;;;8.28;71.32;101243.47;1718205;81;20933;-78
2022/04/11 08:16:12;;;;;;;1.92;0.72;;;;;;;8.20;71.35;101241.29;1717036;81;20948;-78
2022/04/11 08:18:38;;;;;;;;;;;;;;;8.21;71.36;101246.45;1714929;81;21759;-78
2022/04/11 08:21:04;;;;;;;2.20;0.63;;;;;;;8.24;70.84;101244.31;1721148;81;20156;-78
2022/04/11 08:23:31;;;;;;;4.58;0.70;;;;;;;8.30;71.26;101248.20;1707158;82;21095;-78
2022/04/11 08:25:57;;;;;;;1.90;0.62;;;;;;;8.36;71.19;101251.23;1710745;81;21379;-78
2022/04/11 08:28:24;;;;;;;4.08;0.90;;;;;;;8.31;70.91;101251.20;1728349;82;20934;-78
2022/04/11 08:30:53;;;;;;;2.17;0.80;;;;;;;8.17;70.70;101255.02;1718944;82;21343;-78
2022/04/11 08:33:19;;;;;;;3.37;0.97;;;;;;;8.08;70.68;101260.55;1706109;81;20869;-78
2022/04/11 08:35:45;;;;;;;2.60;1.00;;;;;;;8.06;70.77;101251.96;1709545;82;22146;-78
2022/04/11 08:38:11;;;;;;;2.92;0.98;;;;;;;8.15;70.82;101249.42;1714476;82;21359;-79
2022/04/11 08:40:37;;;;;;;4.23;0.70;;;;;;;8.37;71.04;101251.23;1715741;81;20921;-79
2022/04/11 08:43:04;;;;;;;0.98;0.60;;;;;;;8.76;71.04;101254.34;1726350;82;20866;-79
2022/04/11 08:45:31;;;;;;;2.17;0.80;;;;;;;8.99;70.67;101249.61;1718375;82;21658;-80
2022/04/11 08:47:58;;;;;;;2.52;0.80;;;;;;;9.12;70.51;101245.75;1721938;82;28028;-79
2022/04/11 08:50:26;;;;;;;3.50;1.10;;;;;;;9.20;70.45;101243.17;1721891;82;20933;-79
2022/04/11 08:52:56;;;;;;;1.85;0.70;;;;;;;9.22;70.33;101251.34;1719013;81;21344;-79
2022/04/11 08:58:02;;;;;;;2.50;0.75;;;;;;;9.17;70.16;101251.77;1814956;77;21966;-79
2022/04/11 09:00:31;;;;;;;3.27;0.65;;;;;;;9.01;69.95;101264.66;1762315;79;21012;-79
2022/04/11 09:02:57;;;;;;;4.08;0.90;;;;;;;8.77;69.79;101257.35;1776764;79;21029;-79
2022/04/11 09:05:27;;;;;;;2.42;0.78;;;;;;;8.66;69.94;101259.05;1772996;78;21633;-79
2022/04/11 09:07:58;;;;;;;3.00;0.98;;;;;;;8.54;69.92;101257.30;1775767;79;21384;-78
2022/04/11 09:10:28;;;;;;;2.00;0.90;;;;;;;8.43;69.79;101258.98;1736290;81;21398;-78
2022/04/11 09:13:02;;;;;;;2.58;1.07;;;;;;;8.34;69.71;101261.53;1748204;80;21339;-78
2022/04/11 09:15:28;;;;;;;2.52;0.80;;;;;;;8.24;69.63;101259.34;1733093;81;21497;-78
2022/04/11 09:17:56;;;;;;;;;;;;;;;8.15;69.62;101255.44;1733679;82;20883;-78
2022/04/11 09:20:28;;;;;;;4.28;0.90;;;;;;;8.12;69.30;101255.42;1728624;81;20106;-78
2022/04/11 09:22:55;;;;;;;2.33;0.80;;;;;;;8.10;69.55;101258.84;1727978;82;20953;-78
2022/04/11 09:25:24;;;;;;;1.37;1.10;;;;;;;8.09;69.49;101260.98;1729141;82;21407;-78
2022/04/11 09:28:09;;;;;;;3.10;0.90;;;;;;;8.10;69.43;101257.13;1725713;82;21758;-79
2022/04/11 09:30:38;;;;;;;2.67;0.95;;;;;;;8.11;69.29;101258.00;1731291;81;21454;-78
2022/04/11 09:33:08;;;;;;;2.55;0.90;;;;;;;8.09;69.31;101258.41;1731475;81;20899;-78
2022/04/11 09:35:41;;;;;;;2.72;0.80;;;;;;;8.13;69.23;101253.28;1734856;81;20918;-78
2022/04/11 09:38:21;;;;;;;3.20;1.17;;;;;;;8.13;69.12;101255.00;1722443;81;20918;-79
2022/04/11 09:40:56;;;;;;;3.22;1.30;;;;;;;8.20;69.15;101251.16;1728737;81;20958;-78
2022/04/11 09:43:30;;;;;;;3.80;1.30;;;;;;;8.29;69.08;101252.49;1723842;81;21523;-78
2022/04/11 09:45:59;;;;;;;3.02;0.88;;;;;;;8.36;69.12;101257.66;1731501;81;21343;-78
2022/04/11 09:48:35;;;;;;;2.52;1.20;;;;;;;8.40;68.97;101247.80;1730766;81;21409;-78
2022/04/11 09:51:00;;;;;;;3.40;1.10;;;;;;;8.42;68.99;101255.97;1731022;82;20929;-78
2022/04/11 09:53:33;;;;;;;3.02;1.27;;;;;;;8.50;68.89;101247.84;1723499;82;21451;-77
2022/04/11 09:56:06;;;;;;;2.85;1.00;;;;;;;8.58;68.93;101246.56;1722217;82;21874;-77
2022/04/11 09:58:35;;;;;;;4.40;1.52;;;;;;;8.68;68.93;101244.44;1696172;83;21370;-77
2022/04/11 10:01:04;;;;;;;2.22;1.05;;;;;;;8.84;68.92;101247.88;1695813;83;20910;-77
2022/04/11 10:03:31;;;;;;;1.72;1.02;;;;;;;8.95;68.67;101246.17;1699684;82;21843;-77
2022/04/11 10:05:58;;;;;;;4.45;1.20;;;;;;;9.01;68.62;101238.86;1687151;83;20902;-77
2022/04/11 10:08:26;;;;;;;2.00;1.10;;;;;;;9.07;68.58;101233.28;1692016;84;21334;-77
2022/04/11 10:10:55;;;;;;;2.02;1.05;;;;;;;9.08;68.51;101238.87;1708242;83;21490;-77
2022/04/11 10:13:21;;;;;;;3.50;1.40;;;;;;;9.06;68.46;101243.17;1704896;83;20867;-77
2022/04/11 10:15:49;;;;;;;1.90;1.00;;;;;;;8.99;68.36;101254.77;1701842;83;21864;-77
2022/04/11 10:18:21;;;;;;;1.70;0.85;;;;;;;8.74;68.16;101263.80;1710201;83;20930;-77
2022/04/11 10:20:58;;;;;;;2.45;0.90;;;;;;;8.45;68.31;101258.98;1710347;83;21328;-77
2022/04/11 10:23:54;;;;;;;2.95;1.50;;;;;;;8.19;68.33;101267.91;1694911;83;20933;-77
2022/04/11 10:26:20;;;;;;;3.30;1.25;;;;;;;8.01;68.42;101268.68;1700241;83;20855;-77
2022/04/11 10:28:51;;;;;;;3.72;1.00;;;;;;;7.85;68.61;101269.02;1703568;83;20958;-77
2022/04/11 10:31:18;;;;;;;3.92;1.40;;;;;;;7.83;68.72;101267.29;1711883;83;20871;-77
2022/04/11 10:33:47;;;;;;;3.30;1.50;;;;;;;7.81;68.77;101268.56;1712999;83;25548;-77
2022/04/11 10:36:38;;;;;;;3.52;1.05;;;;;;;7.86;68.81;101262.16;1703466;82;20949;-77
2022/04/11 10:39:19;;;;;;;2.10;1.50;;;;;;;7.94;68.85;101261.77;1711736;83;20914;-77
2022/04/11 10:42:06;;;;;;;3.98;2.15;;;;;;;8.02;68.79;101256.66;1703703;83;20906;-77
2022/04/11 10:44:53;;;;;;;5.95;2.27;;;;;;;8.07;68.83;101253.68;1709022;83;20902;-78
2022/04/11 10:47:31;;;;;;;1.70;1.30;;;;;;;8.16;68.91;101246.00;1699837;83;20862;-78
2022/04/11 10:50:06;;;;;;;3.70;1.32;;;;;;;8.25;68.64;101246.03;1706305;81;20851;-78
2022/04/11 10:52:41;;;;;;;3.05;1.50;;;;;;;8.35;68.82;101245.64;1706971;83;20862;-78
2022/04/11 10:55:17;;;;;;;1.90;1.35;;;;;;;8.52;68.92;101234.52;1702941;83;20909;-78
2022/04/11 10:57:55;;;;;;;6.15;1.60;;;;;;;8.67;68.84;101236.70;1706893;82;21343;-78
2022/04/11 11:00:31;;;;;;;3.27;1.60;;;;;;;8.87;68.84;101235.84;1713486;81;20927;-78
2022/04/11 11:03:02;;;;;;;3.92;1.50;;;;;;;9.05;68.71;101235.00;1687055;82;20934;-78
2022/04/11 11:05:48;;;;;;;3.02;1.55;;;;;;;9.14;68.65;101230.27;1706064;82;20870;-78
2022/04/11 11:08:21;;;;;;;2.08;1.40;;;;;;;9.17;68.48;101225.97;1694994;82;20883;-77
2022/04/11 11:11:01;;;;;;;4.47;2.37;;;;;;;9.17;68.43;101229.84;1714275;81;20899;-78
2022/04/11 11:13:39;;;;;;;10.72;3.40;;;;;;;9.16;68.46;101229.41;1688295;82;20959;-78
2022/04/11 11:16:14;;;;;;;5.55;2.12;;;;;;;9.21;68.46;101231.56;1724043;81;20909;-78
2022/04/11 11:18:52;;;;;;;6.33;2.15;;;;;;;9.23;68.46;101230.27;1719565;81;20925;-78
2022/04/11 11:21:30;;;;;;;2.60;1.35;;;;;;;9.27;68.54;101230.27;1750357;79;20958;-77
2022/04/11 11:24:08;;;;;;;2.80;1.37;;;;;;;9.29;68.47;101230.27;1738082;79;20871;-78
2022/04/11 11:26:59;;;;;;;2.70;1.25;;;;;;;9.27;68.36;101230.27;1747839;79;20926;-79
2022/04/11 11:29:43;;;;;;;4.85;1.27;;;;;;;9.27;68.32;101222.95;1760060;81;20949;-78
2022/04/11 11:32:12;;;;;;;2.30;1.20;;;;;;;9.27;68.37;101227.69;1750582;81;20926;-75
2022/04/11 11:34:40;;;;;;;1.95;0.78;;;;;;;9.29;68.23;101222.09;1765195;80;20957;-76
2022/04/11 11:37:10;;;;;;;4.95;1.27;;;;;;;9.32;68.31;101225.53;1749636;81;21990;-74
2022/04/11 11:39:43;;;;;;;4.55;1.27;;;;;;;9.41;68.27;101221.62;1714697;80;20911;-75
2022/04/11 11:42:15;;;;;;;2.72;1.22;;;;;;;9.42;68.13;101227.20;1688553;82;20934;-77
2022/04/11 11:44:47;;;;;;;3.05;1.25;;;;;;;9.34;68.08;101227.25;1691548;84;20926;-75